Time;durP1;ratioP1;P1;durP2;ratioP2;P2;SDS_P1;SDS_P2;PMS_P1;PMS_P2;Temp;Humidity;BMP_temperature;BMP_pressure;BME280_temperature;BME280_humidity;BME280_pressure;Samples;Min_cycle;Max_cycle;Signal;HPM_P1;HPM_P2
2022/03/23 00:00:46;;;;;;;14.05;7.50;;;5.10;78.00;;;;;;6348442;28;20068;-81
2022/03/23 00:03:48;;;;;;;15.27;8.07;;;5.10;77.90;;;;;;6323482;28;20067;-78
2022/03/23 00:06:50;;;;;;;16.02;8.10;;;5.10;78.30;;;;;;6322292;28;20169;-78
2022/03/23 00:09:52;;;;;;;18.85;7.88;;;5.10;78.10;;;;;;6322659;28;20051;-78
2022/03/23 00:12:57;;;;;;;13.57;6.45;;;5.00;78.30;;;;;;6322919;28;20066;-79
2022/03/23 00:16:00;;;;;;;16.00;8.05;;;5.00;78.20;;;;;;6322045;28;20092;-77
2022/03/23 00:19:02;;;;;;;19.45;9.10;;;5.00;78.20;;;;;;6323313;28;20497;-78
2022/03/23 00:22:04;;;;;;;17.35;8.90;;;4.90;78.10;;;;;;6322562;28;20050;-78
2022/03/23 00:25:08;;;;;;;16.50;7.95;;;4.90;78.20;;;;;;6322087;28;20062;-78
2022/03/23 00:28:11;;;;;;;15.88;8.60;;;4.80;78.50;;;;;;6322498;28;20174;-78
2022/03/23 00:31:14;;;;;;;16.48;8.38;;;4.80;79.40;;;;;;6323448;28;20194;-78
2022/03/23 00:50:30;;;;;;;17.30;8.43;;;4.50;80.00;;;;;;6285635;28;20472;-82
2022/03/23 00:53:40;;;;;;;21.77;9.98;;;4.60;80.20;;;;;;6323897;27;20043;-81
2022/03/23 00:56:42;;;;;;;18.88;7.88;;;4.40;80.70;;;;;;6355998;27;20047;-81
2022/03/23 01:07:31;;;;;;;21.33;8.57;;;4.20;81.30;;;;;;6319600;28;20055;-81
2022/03/23 01:10:52;;;;;;;16.90;8.52;;;4.10;81.80;;;;;;6351843;28;20039;-81
2022/03/23 01:14:27;;;;;;;17.15;9.48;;;4.10;81.90;;;;;;6345704;27;20048;-80
2022/03/23 01:22:16;;;;;;;18.27;8.90;;;3.90;82.10;;;;;;6333747;27;20047;-81
2022/03/23 01:25:19;;;;;;;18.40;8.77;;;3.80;82.70;;;;;;6342864;27;20046;-81
2022/03/23 01:28:22;;;;;;;16.85;8.13;;;3.80;83.20;;;;;;6353161;27;20515;-81
2022/03/23 01:31:24;;;;;;;15.75;7.47;;;3.80;83.00;;;;;;6353318;28;20055;-81
2022/03/23 01:34:26;;;;;;;17.95;8.90;;;3.80;83.20;;;;;;6352739;27;20122;-81
2022/03/23 01:37:28;;;;;;;19.17;8.00;;;3.70;83.50;;;;;;6360576;27;20055;-81
2022/03/23 01:40:30;;;;;;;14.30;7.45;;;3.70;83.70;;;;;;6379414;27;20418;-82
2022/03/23 01:43:33;;;;;;;16.13;8.15;;;3.70;83.50;;;;;;6381263;27;20055;-82
2022/03/23 01:46:35;;;;;;;14.05;7.72;;;3.60;83.50;;;;;;6381475;27;20066;-82
2022/03/23 01:49:39;;;;;;;18.77;9.38;;;3.60;83.80;;;;;;6382003;27;20062;-82
2022/03/23 01:52:41;;;;;;;16.75;9.88;;;3.60;83.30;;;;;;6391126;27;20110;-81
2022/03/23 01:55:43;;;;;;;16.48;8.77;;;3.60;83.70;;;;;;6346217;27;20529;-80
2022/03/23 01:58:46;;;;;;;20.05;9.80;;;3.60;83.70;;;;;;6378036;28;20057;-82
2022/03/23 02:01:48;;;;;;;16.88;9.25;;;3.60;83.90;;;;;;6377903;28;20067;-79
2022/03/23 02:04:50;;;;;;;17.33;8.85;;;3.50;84.00;;;;;;6376414;28;20649;-80
2022/03/23 02:07:52;;;;;;;19.80;9.38;;;3.50;84.20;;;;;;6377732;28;20043;-81
2022/03/23 02:10:54;;;;;;;22.40;9.90;;;3.50;84.40;;;;;;6376107;28;20071;-80
2022/03/23 02:13:57;;;;;;;20.42;9.32;;;3.50;84.80;;;;;;6377129;28;20043;-82
2022/03/23 02:16:59;;;;;;;21.02;9.77;;;3.40;84.70;;;;;;6376864;28;20129;-81
2022/03/23 02:20:01;;;;;;;21.88;9.82;;;3.40;85.30;;;;;;6377214;28;20051;-81
2022/03/23 02:23:04;;;;;;;19.15;9.43;;;3.30;85.00;;;;;;6377644;28;20108;-81
2022/03/23 02:26:07;;;;;;;19.95;9.30;;;3.30;84.90;;;;;;6376622;28;20068;-80
2022/03/23 02:29:10;;;;;;;19.20;12.13;;;3.20;84.80;;;;;;6376878;28;20043;-81
2022/03/23 02:32:13;;;;;;;19.75;9.63;;;3.20;85.30;;;;;;6376885;28;20039;-81
2022/03/23 02:35:15;;;;;;;22.73;10.43;;;3.20;86.20;;;;;;6382730;28;20097;-81
2022/03/23 02:38:19;;;;;;;18.60;8.55;;;3.10;85.90;;;;;;6379390;28;20124;-82
2022/03/23 02:41:20;;;;;;;20.55;9.60;;;3.10;86.30;;;;;;6378850;28;20070;-82
2022/03/23 02:44:22;;;;;;;26.60;10.45;;;3.10;86.10;;;;;;6378223;27;20035;-82
2022/03/23 02:47:24;;;;;;;23.58;10.77;;;3.10;86.40;;;;;;6383859;27;20055;-81
2022/03/23 02:50:26;;;;;;;19.30;10.10;;;3.10;86.50;;;;;;6382754;27;20127;-81
2022/03/23 03:03:59;;;;;;;27.30;10.80;;;3.00;87.00;;;;;;6381232;27;20043;-81
2022/03/23 03:07:01;;;;;;;18.60;9.25;;;3.00;87.10;;;;;;6380920;27;20084;-81
2022/03/23 03:10:04;;;;;;;24.05;10.88;;;2.90;87.40;;;;;;6380898;27;20684;-80
2022/03/23 03:13:07;;;;;;;27.13;10.43;;;2.90;87.70;;;;;;6380395;27;20043;-81
2022/03/23 03:16:09;;;;;;;20.83;9.70;;;2.90;87.50;;;;;;6380467;27;20435;-81
2022/03/23 03:19:11;;;;;;;18.23;10.85;;;2.80;87.10;;;;;;6382145;27;20051;-81
2022/03/23 03:22:13;;;;;;;22.00;11.32;;;2.80;87.30;;;;;;6381268;27;20088;-81
2022/03/23 03:25:18;;;;;;;22.42;11.32;;;2.80;88.00;;;;;;6380329;27;20050;-81
2022/03/23 03:28:20;;;;;;;23.95;11.93;;;2.70;88.00;;;;;;6380881;27;20176;-81
2022/03/23 03:31:22;;;;;;;19.08;9.15;;;2.70;87.70;;;;;;6380612;27;20420;-81
2022/03/23 03:34:23;;;;;;;21.70;9.82;;;2.70;87.10;;;;;;6379917;27;20088;-81
2022/03/23 03:37:25;;;;;;;19.92;10.52;;;2.70;86.80;;;;;;6381305;27;20055;-81
2022/03/23 03:40:28;;;;;;;32.10;12.68;;;2.70;87.40;;;;;;6381444;27;20496;-81
2022/03/23 03:43:31;;;;;;;29.67;10.82;;;2.70;87.60;;;;;;6381955;27;20534;-81
2022/03/23 03:46:33;;;;;;;22.25;10.93;;;2.70;87.50;;;;;;6379781;27;20047;-82
2022/03/23 03:49:35;;;;;;;21.67;10.52;;;2.70;87.90;;;;;;6380604;27;20543;-81
2022/03/23 03:52:36;;;;;;;21.60;11.95;;;2.70;87.70;;;;;;6380826;27;20069;-80
2022/03/23 03:55:41;;;;;;;18.15;8.85;;;2.70;87.70;;;;;;6380209;27;20047;-82
2022/03/23 03:58:42;;;;;;;22.55;10.13;;;2.70;87.30;;;;;;6379591;27;20043;-81
2022/03/23 04:01:44;;;;;;;21.42;10.15;;;2.60;87.20;;;;;;6380726;27;20053;-81
2022/03/23 04:04:46;;;;;;;18.08;9.27;;;2.60;87.50;;;;;;6379780;27;20043;-81
2022/03/23 04:07:48;;;;;;;26.33;11.85;;;2.60;88.10;;;;;;6380678;27;20507;-81
2022/03/23 04:10:51;;;;;;;23.80;11.25;;;2.50;88.30;;;;;;6380357;27;20054;-82
2022/03/23 04:13:52;;;;;;;21.65;10.57;;;2.50;88.30;;;;;;6380138;27;20063;-81
2022/03/23 04:16:54;;;;;;;21.88;10.60;;;2.50;88.50;;;;;;6380441;27;20047;-81
2022/03/23 04:19:56;;;;;;;21.55;10.15;;;2.50;88.40;;;;;;6380372;27;20083;-82
2022/03/23 04:22:58;;;;;;;24.50;11.48;;;2.50;88.60;;;;;;6380897;27;20104;-81
2022/03/23 04:26:02;;;;;;;25.58;11.25;;;2.40;88.60;;;;;;6379544;27;20067;-81
2022/03/23 04:29:04;;;;;;;21.75;10.15;;;2.40;88.70;;;;;;6379978;27;20049;-81
2022/03/23 04:32:06;;;;;;;22.00;10.65;;;2.30;89.00;;;;;;6380058;27;20051;-82
2022/03/23 04:35:08;;;;;;;25.92;11.38;;;2.30;89.40;;;;;;6379496;27;20547;-82
2022/03/23 04:38:11;;;;;;;24.98;10.00;;;2.30;89.70;;;;;;6379248;27;20180;-80
2022/03/23 04:41:14;;;;;;;20.75;9.57;;;2.30;89.90;;;;;;6379724;27;20415;-81
2022/03/23 04:44:16;;;;;;;25.27;11.27;;;2.30;89.80;;;;;;6379924;27;20043;-80
2022/03/23 04:47:17;;;;;;;24.83;12.43;;;2.20;90.00;;;;;;6380899;27;20472;-81
2022/03/23 04:50:20;;;;;;;23.58;11.02;;;2.20;90.10;;;;;;6379358;27;20113;-81
2022/03/23 04:53:22;;;;;;;23.27;10.95;;;2.30;90.00;;;;;;6380278;27;20039;-81
2022/03/23 04:56:25;;;;;;;25.55;11.65;;;2.20;89.80;;;;;;6378294;27;20050;-81
2022/03/23 04:59:27;;;;;;;21.50;11.18;;;2.20;89.40;;;;;;6388420;27;20130;-81
2022/03/23 05:02:29;;;;;;;24.77;11.68;;;2.20;89.30;;;;;;6377256;27;20047;-80
2022/03/23 05:05:31;;;;;;;21.23;9.98;;;2.20;89.20;;;;;;6376531;27;20076;-80
2022/03/23 05:08:33;;;;;;;24.20;10.65;;;2.20;89.70;;;;;;6376070;27;20043;-80
2022/03/23 05:11:36;;;;;;;25.52;11.18;;;2.20;89.90;;;;;;6376662;27;20426;-79
2022/03/23 05:14:38;;;;;;;21.55;10.40;;;2.20;89.80;;;;;;6376111;27;20447;-81
2022/03/23 05:17:40;;;;;;;19.35;10.48;;;2.20;89.70;;;;;;6376459;27;20122;-81
2022/03/23 05:20:42;;;;;;;22.30;9.98;;;2.20;89.50;;;;;;6376872;27;20039;-80
2022/03/23 05:23:44;;;;;;;22.88;9.82;;;2.20;89.20;;;;;;6377153;27;20131;-81
2022/03/23 05:26:47;;;;;;;21.02;10.55;;;2.20;89.20;;;;;;6375240;27;20050;-80
2022/03/23 05:29:49;;;;;;;25.20;11.52;;;2.20;89.60;;;;;;6376259;27;20559;-80
2022/03/23 05:32:50;;;;;;;27.30;11.48;;;2.20;89.90;;;;;;6376762;27;20054;-81
2022/03/23 05:35:52;;;;;;;28.35;13.27;;;2.20;89.90;;;;;;6374907;27;20410;-81
2022/03/23 05:38:54;;;;;;;20.77;10.32;;;2.20;90.00;;;;;;6375989;27;20058;-79
2022/03/23 05:41:57;;;;;;;18.05;10.30;;;2.20;89.80;;;;;;6375506;27;20122;-80
2022/03/23 05:44:59;;;;;;;23.88;11.60;;;2.30;90.10;;;;;;6374946;27;20043;-81
2022/03/23 05:48:00;;;;;;;24.05;11.52;;;2.30;90.00;;;;;;6375679;27;20043;-81
2022/03/23 05:51:02;;;;;;;23.45;11.27;;;2.40;90.10;;;;;;6375970;27;20054;-81
2022/03/23 05:54:04;;;;;;;18.67;10.27;;;2.50;89.80;;;;;;6376204;27;20127;-80
2022/03/23 05:57:07;;;;;;;21.65;10.80;;;2.60;89.70;;;;;;6374432;27;20070;-81
2022/03/23 06:00:10;;;;;;;19.83;10.27;;;2.70;89.70;;;;;;6375820;28;20043;-80
2022/03/23 06:03:12;;;;;;;26.98;11.90;;;2.70;89.30;;;;;;6377009;28;20047;-79
2022/03/23 06:06:13;;;;;;;25.45;10.20;;;2.70;89.50;;;;;;6383962;28;20066;-81
2022/03/23 06:09:15;;;;;;;26.58;11.70;;;2.90;89.50;;;;;;6378590;28;20043;-83
2022/03/23 06:12:19;;;;;;;19.20;10.02;;;3.00;89.40;;;;;;6377398;28;20046;-81
2022/03/23 06:15:21;;;;;;;26.48;12.85;;;3.20;89.70;;;;;;6375791;28;20043;-82
2022/03/23 06:18:22;;;;;;;26.70;10.20;;;3.40;89.00;;;;;;6377069;27;20043;-81
2022/03/23 06:21:24;;;;;;;22.13;10.18;;;3.50;89.10;;;;;;6381426;27;20047;-81
2022/03/23 06:24:26;;;;;;;21.70;10.18;;;3.70;88.60;;;;;;6381537;27;20039;-81
2022/03/23 06:27:29;;;;;;;21.38;12.13;;;3.90;88.20;;;;;;6381911;27;20054;-80
2022/03/23 06:30:31;;;;;;;19.50;10.20;;;4.10;87.80;;;;;;6381339;27;20149;-80
2022/03/23 06:33:33;;;;;;;30.45;12.13;;;4.30;87.20;;;;;;6381155;27;20047;-81
2022/03/23 06:36:36;;;;;;;20.23;10.93;;;4.50;86.50;;;;;;6332621;22;20138;-79
2022/03/23 06:39:38;;;;;;;23.95;10.68;;;4.80;86.00;;;;;;6304044;28;20048;-79
2022/03/23 06:42:41;;;;;;;17.67;9.85;;;5.00;85.30;;;;;;6302870;28;20052;-79
2022/03/23 06:45:43;;;;;;;16.40;9.55;;;5.30;84.80;;;;;;6302310;28;20045;-79
2022/03/23 06:48:47;;;;;;;24.85;9.63;;;5.50;84.40;;;;;;6302643;28;20555;-79
2022/03/23 06:51:48;;;;;;;16.17;9.50;;;5.70;83.90;;;;;;6303832;28;20060;-79
2022/03/23 06:54:50;;;;;;;21.30;10.10;;;6.00;83.30;;;;;;6301811;28;20406;-79
2022/03/23 06:57:54;;;;;;;26.50;12.80;;;6.20;82.80;;;;;;6304022;28;20442;-79
2022/03/23 07:00:57;;;;;;;24.80;11.15;;;6.50;82.20;;;;;;6304661;28;20056;-79
2022/03/23 07:03:59;;;;;;;23.85;11.73;;;6.80;81.60;;;;;;6306261;28;20116;-79
2022/03/23 07:07:00;;;;;;;26.85;13.25;;;7.00;81.20;;;;;;6305161;28;20516;-79
2022/03/23 07:10:02;;;;;;;21.75;11.65;;;7.30;80.70;;;;;;6305011;28;20044;-79
2022/03/23 07:13:05;;;;;;;21.42;10.45;;;7.70;80.10;;;;;;6306816;28;20090;-79
2022/03/23 07:16:07;;;;;;;20.58;11.20;;;8.10;79.50;;;;;;6306287;28;20055;-79
2022/03/23 07:19:09;;;;;;;25.08;11.68;;;8.50;78.40;;;;;;6307275;28;20052;-79
2022/03/23 07:22:11;;;;;;;19.17;9.77;;;9.00;77.30;;;;;;6305840;28;20056;-79
2022/03/23 07:25:13;;;;;;;19.08;9.13;;;9.50;75.90;;;;;;6300974;28;20063;-79
2022/03/23 07:28:17;;;;;;;24.83;10.57;;;10.40;74.20;;;;;;6302483;28;20067;-79
2022/03/23 07:31:18;;;;;;;18.60;8.60;;;11.40;69.90;;;;;;6303517;28;20059;-79
2022/03/23 07:34:20;;;;;;;15.50;9.20;;;13.00;64.50;;;;;;6302861;28;20617;-79
2022/03/23 07:37:22;;;;;;;17.80;9.57;;;15.00;58.40;;;;;;6308597;28;20048;-81
2022/03/23 07:40:24;;;;;;;21.20;8.68;;;16.70;51.90;;;;;;6304300;28;20498;-80
2022/03/23 07:43:27;;;;;;;17.05;9.35;;;18.10;48.20;;;;;;6305025;28;20052;-80
2022/03/23 07:46:30;;;;;;;24.85;9.05;;;19.30;44.10;;;;;;6303608;28;20673;-80
2022/03/23 07:49:32;;;;;;;16.10;9.15;;;19.80;41.40;;;;;;6303853;28;20589;-80
2022/03/23 07:52:34;;;;;;;16.67;7.72;;;19.50;40.80;;;;;;6303491;28;20524;-80
2022/03/23 07:55:36;;;;;;;12.48;8.00;;;18.90;40.50;;;;;;6302126;28;20567;-80
2022/03/23 07:58:39;;;;;;;17.95;8.93;;;18.10;41.50;;;;;;6248788;28;20544;-79
2022/03/23 08:01:41;;;;;;;12.23;8.23;;;17.30;43.40;;;;;;6275345;28;20053;-80
2022/03/23 08:04:43;;;;;;;15.05;8.43;;;16.90;44.40;;;;;;6302172;28;20048;-81
2022/03/23 08:07:45;;;;;;;19.35;9.43;;;16.80;44.90;;;;;;6247767;28;20052;-80
2022/03/23 08:10:47;;;;;;;19.00;10.48;;;16.90;44.20;;;;;;6250806;28;20084;-81
2022/03/23 08:13:50;;;;;;;15.50;8.77;;;16.90;43.90;;;;;;6272041;28;20092;-81
2022/03/23 08:16:52;;;;;;;13.68;8.20;;;16.90;43.90;;;;;;6265705;28;20123;-80
2022/03/23 08:23:12;;;;;;;24.40;10.00;;;16.90;44.00;;;;;;6277434;28;20495;-79
2022/03/23 08:26:14;;;;;;;15.80;9.20;;;17.20;43.70;;;;;;6277206;28;20203;-79
2022/03/23 08:29:17;;;;;;;18.95;9.65;;;17.70;43.10;;;;;;6276217;28;20041;-79
2022/03/23 08:32:22;;;;;;;25.45;9.60;;;18.30;41.60;;;;;;6280443;28;20207;-80
2022/03/23 08:35:24;;;;;;;25.17;10.40;;;18.70;40.00;;;;;;6278208;28;20064;-79
2022/03/23 08:38:26;;;;;;;19.58;10.63;;;18.60;39.80;;;;;;6276806;28;20506;-80
2022/03/23 08:41:28;;;;;;;20.05;9.98;;;18.60;40.40;;;;;;6274724;28;20171;-80
2022/03/23 08:44:31;;;;;;;17.27;9.75;;;18.50;40.80;;;;;;6273593;28;20394;-80
2022/03/23 08:47:33;;;;;;;21.85;9.98;;;18.60;41.30;;;;;;6277107;28;20056;-80
2022/03/23 08:50:35;;;;;;;21.95;9.73;;;19.10;41.20;;;;;;6276097;28;20132;-80
2022/03/23 08:53:38;;;;;;;24.65;10.40;;;20.00;39.30;;;;;;6273890;28;20127;-79
2022/03/23 08:56:40;;;;;;;20.48;10.60;;;20.80;38.20;;;;;;6272350;28;20056;-78
2022/03/23 08:59:44;;;;;;;20.00;11.40;;;21.20;37.30;;;;;;6273880;28;20052;-77
2022/03/23 09:02:45;;;;;;;18.33;9.35;;;21.50;36.60;;;;;;6272703;28;20049;-78
2022/03/23 09:05:47;;;;;;;16.75;8.57;;;21.70;36.50;;;;;;6273727;28;20115;-78
2022/03/23 09:08:49;;;;;;;19.00;10.73;;;21.90;36.60;;;;;;6273429;28;20414;-79
2022/03/23 09:11:51;;;;;;;21.52;10.73;;;22.10;36.20;;;;;;6275002;28;20051;-79
2022/03/23 09:14:54;;;;;;;18.02;10.77;;;22.30;35.60;;;;;;6280115;28;20049;-77
2022/03/23 09:17:59;;;;;;;17.42;9.55;;;22.60;34.60;;;;;;6283225;28;20490;-78
2022/03/23 09:21:02;;;;;;;19.13;9.73;;;23.10;34.20;;;;;;6275302;28;20049;-78
2022/03/23 09:24:04;;;;;;;23.55;11.07;;;23.50;33.40;;;;;;6273388;28;20092;-78
2022/03/23 09:27:05;;;;;;;21.45;10.60;;;23.90;32.90;;;;;;6273143;28;20049;-79
2022/03/23 09:30:11;;;;;;;17.70;10.32;;;24.00;32.40;;;;;;6275030;28;20095;-78
2022/03/23 09:33:13;;;;;;;18.23;10.02;;;24.10;32.30;;;;;;6273088;28;20049;-78
2022/03/23 09:37:47;;;;;;;16.83;9.85;;;24.20;32.30;;;;;;6272376;28;20048;-77
2022/03/23 09:39:46;;;;;;;24.27;10.77;;;24.10;31.90;;;;;;6272233;28;20491;-79
2022/03/23 09:42:49;;;;;;;20.85;10.25;;;23.70;32.50;;;;;;6271861;28;20446;-78
2022/03/23 09:45:52;;;;;;;21.00;11.88;;;23.10;33.30;;;;;;6271305;28;20414;-78
2022/03/23 09:48:54;;;;;;;28.67;12.88;;;22.40;33.80;;;;;;6272263;28;20052;-78
2022/03/23 09:51:57;;;;;;;27.85;11.00;;;21.90;34.20;;;;;;6275943;28;20211;-78
2022/03/23 09:54:59;;;;;;;18.20;10.27;;;21.30;35.40;;;;;;6274236;28;20506;-79
2022/03/23 09:58:03;;;;;;;24.15;11.40;;;21.00;36.00;;;;;;6274184;28;20094;-78
2022/03/23 10:01:31;;;;;;;19.60;11.07;;;21.00;36.20;;;;;;6272955;28;20056;-78
2022/03/23 10:05:06;;;;;;;22.98;11.90;;;21.10;36.20;;;;;;6271276;28;20077;-78
2022/03/23 10:08:32;;;;;;;18.17;10.68;;;21.20;36.30;;;;;;6218106;28;20048;-78
2022/03/23 10:12:13;;;;;;;22.35;11.23;;;21.30;35.80;;;;;;6268409;28;20072;-78
2022/03/23 10:16:01;;;;;;;25.17;12.50;;;21.40;35.70;;;;;;6273144;28;20052;-78
2022/03/23 10:19:05;;;;;;;20.92;10.73;;;21.50;35.50;;;;;;6270899;28;20052;-78
2022/03/23 10:22:10;;;;;;;23.33;12.18;;;21.70;35.40;;;;;;6272758;28;20051;-78
2022/03/23 10:25:13;;;;;;;19.05;12.02;;;21.90;35.00;;;;;;6254188;28;20049;-78
2022/03/23 10:28:17;;;;;;;20.48;11.75;;;22.10;35.00;;;;;;6247437;28;20136;-78
2022/03/23 10:31:20;;;;;;;24.58;10.77;;;22.30;34.10;;;;;;6248282;28;20057;-76
2022/03/23 10:34:23;;;;;;;20.73;11.15;;;22.40;34.50;;;;;;6247064;28;20041;-78
2022/03/23 10:37:27;;;;;;;20.02;11.23;;;22.60;34.40;;;;;;6248053;28;20053;-78
2022/03/23 10:40:33;;;;;;;18.75;11.15;;;22.90;34.30;;;;;;6272278;28;20053;-78
2022/03/23 10:43:37;;;;;;;24.45;11.77;;;23.10;33.60;;;;;;6273223;28;20176;-79
2022/03/23 10:46:41;;;;;;;18.38;10.38;;;23.20;33.20;;;;;;6272628;28;20084;-78
2022/03/23 10:49:45;;;;;;;20.10;10.70;;;23.30;33.40;;;;;;6272765;28;20045;-78
2022/03/23 10:52:52;;;;;;;20.92;11.10;;;23.60;33.00;;;;;;6272411;28;20049;-78
2022/03/23 10:55:54;;;;;;;19.70;11.57;;;24.00;32.10;;;;;;6271833;28;20120;-78
2022/03/23 10:59:22;;;;;;;15.98;10.73;;;24.20;31.30;;;;;;6272820;28;20147;-77
2022/03/23 11:02:24;;;;;;;21.50;10.77;;;24.40;30.70;;;;;;6272451;28;20049;-80
2022/03/23 11:05:34;;;;;;;21.77;11.43;;;24.60;30.20;;;;;;6272338;28;20052;-78
2022/03/23 11:08:36;;;;;;;20.30;10.05;;;24.80;30.00;;;;;;6276207;28;20127;-79
2022/03/23 11:18:33;;;;;;;27.10;11.73;;;25.40;28.60;;;;;;6267265;28;20533;-79
2022/03/23 11:21:57;;;;;;;18.55;11.10;;;25.50;28.30;;;;;;6252049;28;20087;-80
2022/03/23 11:24:59;;;;;;;15.75;10.48;;;25.60;28.40;;;;;;6251725;28;20053;-80
2022/03/23 11:28:01;;;;;;;21.92;10.10;;;25.80;28.00;;;;;;6251253;28;20041;-80
2022/03/23 11:31:05;;;;;;;21.70;9.90;;;26.20;27.80;;;;;;6254758;28;20057;-79
2022/03/23 11:34:08;;;;;;;18.52;10.15;;;26.50;27.00;;;;;;6256221;28;20045;-79
2022/03/23 11:37:12;;;;;;;20.85;11.20;;;26.70;26.70;;;;;;6255498;28;20037;-79
2022/03/23 11:40:14;;;;;;;18.45;10.05;;;26.90;26.70;;;;;;6273405;28;20048;-79
2022/03/23 11:43:18;;;;;;;16.48;9.38;;;27.10;26.10;;;;;;6282003;28;20052;-79
2022/03/23 11:46:22;;;;;;;28.50;9.88;;;27.00;26.20;;;;;;6279834;28;20136;-79
2022/03/23 11:49:32;;;;;;;14.13;9.63;;;27.20;25.80;;;;;;6280360;28;20048;-79
2022/03/23 11:52:46;;;;;;;16.48;9.80;;;27.20;25.20;;;;;;6281917;28;20131;-78
2022/03/23 11:55:51;;;;;;;16.58;8.95;;;27.40;25.40;;;;;;6286364;28;20123;-78
2022/03/23 11:58:53;;;;;;;18.90;8.60;;;27.60;25.00;;;;;;6288153;28;20037;-79
2022/03/23 12:01:57;;;;;;;14.77;8.52;;;27.80;24.80;;;;;;6284396;28;20526;-79
2022/03/23 12:05:23;;;;;;;13.38;8.85;;;27.60;23.30;;;;;;6282909;28;20045;-79
2022/03/23 12:08:47;;;;;;;13.35;8.70;;;26.70;23.40;;;;;;6285942;28;20498;-80
2022/03/23 12:11:51;;;;;;;13.70;7.32;;;26.60;24.60;;;;;;6286218;28;20053;-79
2022/03/23 12:15:22;;;;;;;10.45;7.57;;;27.10;24.00;;;;;;6280880;28;20144;-79
2022/03/23 12:18:40;;;;;;;14.45;8.18;;;26.70;23.40;;;;;;6283468;28;20037;-79
2022/03/23 12:21:48;;;;;;;19.05;8.50;;;26.60;23.90;;;;;;6281927;28;20144;-79
2022/03/23 12:25:03;;;;;;;9.95;7.30;;;26.70;23.80;;;;;;6279125;28;20049;-79
2022/03/23 12:28:25;;;;;;;10.13;7.18;;;26.80;23.00;;;;;;6280260;28;20059;-80
2022/03/23 12:31:37;;;;;;;12.45;6.85;;;26.50;23.20;;;;;;6280019;28;20140;-80
2022/03/23 12:34:40;;;;;;;10.82;7.00;;;26.30;23.30;;;;;;6277996;28;20061;-79
2022/03/23 12:37:44;;;;;;;13.27;7.43;;;26.40;23.30;;;;;;6346187;22;20651;-80
2022/03/23 12:40:48;;;;;;;12.30;6.30;;;26.70;23.10;;;;;;6316705;28;20089;-80
2022/03/23 12:43:49;;;;;;;13.43;7.05;;;27.20;23.40;;;;;;6327278;28;20052;-79
2022/03/23 12:46:51;;;;;;;14.90;7.88;;;27.60;23.30;;;;;;6325249;28;20054;-81
2022/03/23 13:00:08;;;;;;;14.52;7.57;;;28.30;23.60;;;;;;6301870;28;20104;-80
2022/03/23 13:03:48;;;;;;;10.20;7.35;;;28.70;23.20;;;;;;6301631;28;20421;-80
2022/03/23 13:06:50;;;;;;;12.70;7.40;;;29.10;23.10;;;;;;6301329;28;20043;-80
2022/03/23 13:09:52;;;;;;;8.65;6.05;;;29.00;22.60;;;;;;6309772;28;20047;-80
2022/03/23 13:13:07;;;;;;;8.23;5.45;;;28.80;21.80;;;;;;6321865;28;20177;-80
2022/03/23 13:16:10;;;;;;;10.18;5.38;;;28.10;21.50;;;;;;6325446;28;20058;-80
2022/03/23 13:19:13;;;;;;;10.57;5.90;;;27.70;22.30;;;;;;6326005;28;20052;-79
2022/03/23 13:22:16;;;;;;;7.93;4.50;;;27.80;21.80;;;;;;6324544;28;20048;-82
2022/03/23 13:25:18;;;;;;;7.32;5.47;;;27.60;21.50;;;;;;6325959;28;20043;-80
2022/03/23 13:28:24;;;;;;;7.47;5.10;;;27.20;21.20;;;;;;6324191;28;20048;-82
2022/03/23 13:31:31;;;;;;;9.32;5.05;;;26.50;20.60;;;;;;6325649;28;20527;-82
2022/03/23 13:34:36;;;;;;;11.48;3.75;;;25.80;21.40;;;;;;6327238;28;20044;-80
2022/03/23 13:37:55;;;;;;;7.68;4.03;;;25.50;20.90;;;;;;6326294;28;20047;-82
2022/03/23 13:44:54;;;;;;;10.57;5.30;;;24.80;21.30;;;;;;6273881;28;20047;-82
2022/03/23 13:47:41;;;;;;;5.78;4.47;;;24.60;21.40;;;;;;6300364;28;20044;-80
2022/03/23 13:50:45;;;;;;;11.50;5.65;;;24.40;21.70;;;;;;6299602;28;20057;-81
2022/03/23 13:53:48;;;;;;;11.73;5.63;;;24.30;21.90;;;;;;6299889;28;20185;-79
2022/03/23 13:56:51;;;;;;;10.88;5.68;;;24.40;22.60;;;;;;6300275;28;20137;-83
2022/03/23 13:59:54;;;;;;;9.32;4.82;;;24.80;22.50;;;;;;6301531;28;20666;-81
2022/03/23 14:02:56;;;;;;;6.68;5.03;;;25.50;22.30;;;;;;6301462;28;20044;-82
2022/03/23 14:06:05;;;;;;;8.95;4.63;;;26.20;22.40;;;;;;6299747;28;20135;-82
2022/03/23 14:09:08;;;;;;;8.48;5.30;;;26.60;21.20;;;;;;6307318;28;20136;-82
2022/03/23 14:12:11;;;;;;;7.38;5.00;;;26.10;20.90;;;;;;6317516;28;20052;-82
2022/03/23 14:15:14;;;;;;;9.63;5.88;;;25.40;21.10;;;;;;6299900;28;20530;-81
2022/03/23 14:18:16;;;;;;;7.72;5.15;;;24.80;21.20;;;;;;6299991;28;20040;-82
2022/03/23 14:21:22;;;;;;;10.43;5.88;;;24.50;21.60;;;;;;6287178;28;20049;-81
2022/03/23 14:24:24;;;;;;;8.55;5.55;;;24.30;22.00;;;;;;6297671;28;20046;-81
2022/03/23 14:27:29;;;;;;;14.98;6.65;;;24.20;22.20;;;;;;6300581;28;20060;-80
2022/03/23 14:30:33;;;;;;;9.85;5.07;;;24.20;22.50;;;;;;6298837;28;20094;-81
2022/03/23 14:33:35;;;;;;;10.75;6.32;;;24.60;22.10;;;;;;6306675;28;20059;-82
2022/03/23 14:36:37;;;;;;;15.73;6.43;;;24.90;21.50;;;;;;6324108;28;20055;-82
2022/03/23 14:39:41;;;;;;;10.00;5.75;;;24.80;21.80;;;;;;6318795;28;20124;-81
2022/03/23 14:42:43;;;;;;;9.93;5.05;;;25.00;22.20;;;;;;6308925;28;20040;-80
2022/03/23 14:45:47;;;;;;;14.90;6.68;;;25.40;21.90;;;;;;6305172;28;20130;-80
2022/03/23 14:49:05;;;;;;;11.05;5.90;;;25.40;22.20;;;;;;6302073;28;20529;-82
2022/03/23 14:52:07;;;;;;;;;;;25.10;21.60;;;;;;6304886;28;20517;-79
2022/03/23 14:55:09;;;;;;;15.30;6.53;;;24.70;22.10;;;;;;6304105;28;19920;-80
2022/03/23 14:58:26;;;;;;;9.15;5.90;;;24.50;22.70;;;;;;6305937;28;20402;-79
2022/03/23 15:01:29;;;;;;;9.40;6.03;;;24.80;23.80;;;;;;6304532;28;20098;-82
2022/03/23 15:04:31;;;;;;;15.75;6.30;;;25.10;22.80;;;;;;6308888;28;20044;-81
2022/03/23 15:14:11;;;;;;;11.85;6.60;;;24.70;22.90;;;;;;6309103;28;20048;-82
2022/03/23 15:17:15;;;;;;;11.02;6.68;;;24.60;23.40;;;;;;6308775;28;20101;-82
2022/03/23 15:20:17;;;;;;;14.50;6.97;;;24.70;23.30;;;;;;6313098;28;20064;-78
2022/03/23 15:23:19;;;;;;;10.73;7.47;;;24.70;23.10;;;;;;6341340;28;20121;-82
2022/03/23 15:26:23;;;;;;;14.35;7.50;;;24.20;23.10;;;;;;6310054;28;20055;-81
2022/03/23 15:29:25;;;;;;;10.70;7.13;;;23.70;23.20;;;;;;6304959;28;20207;-82
2022/03/23 15:32:29;;;;;;;12.77;6.55;;;23.30;23.70;;;;;;6304954;28;20037;-81
2022/03/23 15:35:32;;;;;;;21.75;8.45;;;23.10;24.00;;;;;;6303246;28;20418;-82
2022/03/23 15:38:34;;;;;;;11.93;8.20;;;22.80;25.00;;;;;;6300867;28;20036;-81
2022/03/23 15:41:36;;;;;;;15.23;8.18;;;22.70;24.80;;;;;;6320943;28;20101;-82
2022/03/23 15:44:38;;;;;;;14.02;7.35;;;22.50;24.30;;;;;;6327747;28;20050;-81
2022/03/23 15:47:41;;;;;;;13.02;7.25;;;22.30;24.80;;;;;;6328786;28;20040;-81
2022/03/23 15:50:43;;;;;;;11.57;6.90;;;22.00;24.80;;;;;;6327211;28;20050;-82
2022/03/23 15:53:45;;;;;;;13.57;7.47;;;21.70;25.10;;;;;;6327516;28;20096;-81
2022/03/23 15:56:47;;;;;;;13.82;7.45;;;21.50;25.30;;;;;;6327666;28;20054;-80
2022/03/23 15:59:49;;;;;;;12.32;7.55;;;21.40;25.30;;;;;;6328084;28;20051;-81
2022/03/23 16:02:52;;;;;;;14.27;7.35;;;21.30;25.50;;;;;;6327302;28;20489;-80
2022/03/23 16:05:55;;;;;;;23.85;8.40;;;21.10;25.70;;;;;;6327767;28;20056;-80
2022/03/23 16:08:57;;;;;;;13.68;7.78;;;20.80;26.00;;;;;;6327378;28;20044;-81
2022/03/23 16:11:59;;;;;;;13.57;7.68;;;20.70;26.20;;;;;;6308814;28;20051;-80
2022/03/23 16:15:01;;;;;;;23.77;8.93;;;20.70;26.20;;;;;;6301713;28;20055;-82
2022/03/23 16:18:04;;;;;;;13.98;7.90;;;20.70;26.10;;;;;;6302340;28;20047;-80
2022/03/23 16:21:06;;;;;;;21.98;7.95;;;20.50;26.10;;;;;;6301988;28;20052;-80
2022/03/23 16:24:09;;;;;;;14.25;8.15;;;20.40;26.40;;;;;;6285380;28;20052;-82
2022/03/23 16:27:13;;;;;;;11.23;8.02;;;20.40;26.40;;;;;;6276971;28;20056;-82
2022/03/23 16:30:19;;;;;;;21.48;8.20;;;20.30;26.60;;;;;;6277628;28;20045;-80
2022/03/23 16:33:22;;;;;;;17.65;7.68;;;20.30;26.80;;;;;;6276439;28;20517;-79
2022/03/23 16:36:31;;;;;;;19.42;9.05;;;20.20;26.90;;;;;;6312541;28;20497;-81
2022/03/23 16:39:33;;;;;;;11.63;7.85;;;20.20;27.00;;;;;;6318093;28;20059;-81
2022/03/23 16:42:35;;;;;;;17.95;7.32;;;20.10;27.10;;;;;;6298736;28;20428;-80
2022/03/23 16:45:37;;;;;;;11.73;6.43;;;19.90;27.10;;;;;;6301889;28;20459;-80
2022/03/23 16:48:40;;;;;;;14.10;7.90;;;19.70;27.50;;;;;;6296140;28;20517;-81
2022/03/23 16:51:43;;;;;;;31.10;7.75;;;19.50;27.10;;;;;;6280429;28;20049;-80
2022/03/23 16:54:45;;;;;;;11.80;7.32;;;19.50;27.50;;;;;;6307552;28;20063;-80
2022/03/23 16:57:48;;;;;;;16.48;6.45;;;19.40;26.90;;;;;;6288326;28;20045;-81